Time;durP1;ratioP1;P1;durP2;ratioP2;P2;SDS_P1;SDS_P2;PMS_P1;PMS_P2;Temp;Humidity;BMP_temperature;BMP_pressure;BME280_temperature;BME280_humidity;BME280_pressure;Samples;Min_cycle;Max_cycle;Signal;HPM_P1;HPM_P2
2021/12/01 00:00:59;;;;;;;49.53;35.72;;;9.70;99.90;;;;;;5077837;28;20055;-93
2021/12/01 00:03:24;;;;;;;49.97;34.95;;;9.70;99.90;;;;;;5065234;28;20052;-93
2021/12/01 00:05:51;;;;;;;49.90;33.25;;;9.70;99.90;;;;;;5062386;28;20128;-94
2021/12/01 00:08:17;;;;;;;43.35;30.70;;;9.70;99.90;;;;;;5061402;28;20025;-93
2021/12/01 00:10:44;;;;;;;40.53;29.75;;;9.70;99.90;;;;;;5061456;28;20028;-94
2021/12/01 00:13:13;;;;;;;36.28;25.80;;;9.80;99.90;;;;;;5059422;28;20075;-94
2021/12/01 00:15:41;;;;;;;32.15;24.98;;;9.80;99.90;;;;;;5061887;28;20467;-92
2021/12/01 00:18:07;;;;;;;34.03;25.63;;;9.80;99.90;;;;;;5062394;28;20470;-95
2021/12/01 00:20:33;;;;;;;30.20;23.42;;;9.80;99.90;;;;;;5060726;28;20486;-94
2021/12/01 00:22:59;;;;;;;30.27;22.80;;;9.80;99.90;;;;;;5057793;28;20040;-93
2021/12/01 00:25:26;;;;;;;26.40;21.13;;;9.90;99.90;;;;;;5059900;28;20027;-95
2021/12/01 00:27:53;;;;;;;25.40;20.45;;;9.90;99.90;;;;;;5061656;28;20016;-92
2021/12/01 00:30:20;;;;;;;25.20;20.20;;;9.90;99.90;;;;;;5059826;28;20040;-93
2021/12/01 00:32:47;;;;;;;22.77;18.50;;;9.90;99.90;;;;;;5059647;28;20047;-92
2021/12/01 00:35:13;;;;;;;21.45;17.65;;;9.90;99.90;;;;;;5060875;28;20028;-94
2021/12/01 00:37:40;;;;;;;19.98;15.90;;;10.00;99.90;;;;;;5061451;28;20044;-92
2021/12/01 00:40:09;;;;;;;19.08;16.10;;;9.90;99.90;;;;;;5060577;28;20075;-93
2021/12/01 00:42:35;;;;;;;19.33;14.48;;;10.00;99.90;;;;;;5061503;28;20024;-94
2021/12/01 00:45:07;;;;;;;17.00;14.32;;;9.90;99.90;;;;;;5059879;28;20170;-93
2021/12/01 00:50:25;;;;;;;14.32;11.75;;;10.00;99.90;;;;;;5078018;28;20050;-93
2021/12/01 00:52:53;;;;;;;13.15;10.77;;;10.00;99.90;;;;;;5060606;28;20044;-93
2021/12/01 00:55:19;;;;;;;15.00;11.77;;;9.90;99.90;;;;;;5060147;28;20115;-92
2021/12/01 00:57:45;;;;;;;13.68;11.07;;;10.00;99.90;;;;;;5059399;28;20028;-91
2021/12/01 01:00:12;;;;;;;12.13;10.00;;;10.00;99.90;;;;;;5058384;28;20048;-95
2021/12/01 01:02:38;;;;;;;12.82;9.93;;;10.00;99.90;;;;;;5068669;28;20135;-93
2021/12/01 01:05:05;;;;;;;13.65;10.15;;;10.00;99.90;;;;;;5079822;28;20062;-92
2021/12/01 01:07:31;;;;;;;12.25;9.98;;;10.00;99.90;;;;;;5081115;28;20032;-93
2021/12/01 01:10:04;;;;;;;12.05;9.77;;;10.00;99.90;;;;;;5079445;28;20496;-92
2021/12/01 01:18:08;;;;;;;14.45;11.30;;;10.00;99.90;;;;;;5098359;28;20394;-93
2021/12/01 01:20:35;;;;;;;19.52;11.65;;;10.00;99.90;;;;;;5080220;28;20036;-93
2021/12/01 01:23:03;;;;;;;12.57;10.23;;;10.00;99.90;;;;;;5079408;28;20092;-96
2021/12/01 01:25:30;;;;;;;14.63;10.95;;;10.00;99.90;;;;;;5080476;28;20046;-94
2021/12/01 01:27:55;;;;;;;13.63;10.55;;;10.00;99.90;;;;;;5080632;28;20040;-94
2021/12/01 01:30:21;;;;;;;16.17;11.88;;;10.00;99.90;;;;;;5078851;28;20039;-93
2021/12/01 01:32:47;;;;;;;14.48;10.77;;;10.00;99.90;;;;;;5079892;28;20086;-94
2021/12/01 01:35:13;;;;;;;14.27;11.75;;;10.10;99.90;;;;;;5080345;28;20060;-94
2021/12/01 01:37:40;;;;;;;13.13;10.77;;;10.00;99.90;;;;;;5081231;28;20401;-95
2021/12/01 01:40:06;;;;;;;11.98;9.68;;;10.00;99.90;;;;;;5080585;28;20515;-92
2021/12/01 01:42:32;;;;;;;10.70;8.77;;;10.00;99.90;;;;;;5080019;28;20020;-94
2021/12/01 01:44:59;;;;;;;10.70;8.63;;;10.00;99.90;;;;;;5080288;28;20086;-92
2021/12/01 01:47:25;;;;;;;12.07;8.63;;;10.10;99.90;;;;;;5078790;28;20493;-93
2021/12/01 01:50:03;;;;;;;9.60;7.55;;;10.00;99.90;;;;;;5079418;28;20032;-93
2021/12/01 01:52:34;;;;;;;10.27;7.40;;;10.00;99.90;;;;;;5079739;28;20028;-92
2021/12/01 01:54:59;;;;;;;10.02;7.00;;;10.00;99.90;;;;;;5079051;28;20036;-93
2021/12/01 01:57:25;;;;;;;8.95;6.97;;;10.00;99.90;;;;;;5079488;28;20084;-93
2021/12/01 01:59:51;;;;;;;9.18;6.40;;;10.00;99.90;;;;;;5079542;28;20051;-93
2021/12/01 02:02:17;;;;;;;8.60;6.25;;;9.90;99.90;;;;;;5078326;28;20086;-92
2021/12/01 02:04:44;;;;;;;7.00;5.85;;;10.00;99.90;;;;;;5080662;28;20048;-94
2021/12/01 02:07:09;;;;;;;8.48;5.93;;;9.90;99.90;;;;;;5082452;28;20055;-92
2021/12/01 02:09:36;;;;;;;7.85;5.97;;;9.90;99.90;;;;;;5080929;28;20090;-95
2021/12/01 02:12:03;;;;;;;7.03;5.43;;;9.90;99.90;;;;;;5080611;28;20036;-94
2021/12/01 02:14:30;;;;;;;9.68;6.35;;;9.90;99.90;;;;;;5080971;28;20035;-93
2021/12/01 02:16:57;;;;;;;9.48;6.50;;;9.90;99.90;;;;;;5080929;28;20055;-94
2021/12/01 02:19:26;;;;;;;8.00;6.20;;;9.90;99.90;;;;;;5079778;28;20127;-94
2021/12/01 02:21:52;;;;;;;9.52;6.18;;;9.90;99.90;;;;;;5079280;28;20036;-94
2021/12/01 02:24:22;;;;;;;8.25;6.28;;;9.90;99.90;;;;;;5083361;28;20039;-94
2021/12/01 02:26:51;;;;;;;10.48;7.18;;;9.80;99.90;;;;;;5085893;28;20114;-95
2021/12/01 02:29:23;;;;;;;8.07;6.60;;;9.80;99.90;;;;;;5085621;28;20035;-95
2021/12/01 02:32:34;;;;;;;8.40;6.88;;;9.70;99.90;;;;;;5088611;28;20036;-94
2021/12/01 02:35:00;;;;;;;7.35;5.82;;;9.70;99.90;;;;;;5108724;28;20076;-94
2021/12/01 02:37:40;;;;;;;8.52;6.10;;;9.70;99.90;;;;;;5090756;28;20465;-94
2021/12/01 02:40:08;;;;;;;8.57;6.03;;;9.70;99.90;;;;;;5087612;28;20058;-94
2021/12/01 02:42:34;;;;;;;8.63;6.40;;;9.70;99.90;;;;;;5084469;28;20028;-93
2021/12/01 02:45:03;;;;;;;7.93;6.55;;;9.70;99.90;;;;;;5082895;28;20040;-96
2021/12/01 02:47:29;;;;;;;7.85;6.63;;;9.70;99.90;;;;;;5084244;28;20059;-94
2021/12/01 02:49:55;;;;;;;9.52;7.07;;;9.60;99.90;;;;;;5084651;28;20096;-95
2021/12/01 02:52:24;;;;;;;7.97;6.53;;;9.60;99.90;;;;;;5084404;28;20028;-94
2021/12/01 02:54:50;;;;;;;8.90;6.68;;;9.50;99.90;;;;;;5083343;28;20173;-95
2021/12/01 02:57:16;;;;;;;8.20;6.47;;;9.60;99.90;;;;;;5082998;28;20020;-95
2021/12/01 02:59:45;;;;;;;7.43;6.45;;;9.50;99.90;;;;;;5085068;28;20020;-96
2021/12/01 03:02:11;;;;;;;8.20;6.38;;;9.50;99.90;;;;;;5085301;28;20086;-94
2021/12/01 03:04:38;;;;;;;7.13;5.65;;;9.50;99.90;;;;;;5068758;28;20032;-95
2021/12/01 03:07:06;;;;;;;7.38;6.07;;;9.40;99.90;;;;;;5083695;28;20035;-94
2021/12/01 03:09:32;;;;;;;7.65;5.47;;;9.40;99.90;;;;;;5083283;28;20082;-94
2021/12/01 03:11:58;;;;;;;6.38;5.38;;;9.40;99.90;;;;;;5083440;28;20020;-94
2021/12/01 03:14:26;;;;;;;7.28;6.53;;;9.40;99.90;;;;;;5093827;28;20128;-94
2021/12/01 03:16:53;;;;;;;7.50;5.72;;;9.30;99.90;;;;;;5088942;28;20048;-95
2021/12/01 03:19:20;;;;;;;8.00;6.22;;;9.30;99.90;;;;;;5089757;28;20128;-93
2021/12/01 03:21:46;;;;;;;8.15;5.35;;;9.30;99.90;;;;;;5086212;28;20046;-93
2021/12/01 03:24:12;;;;;;;9.50;5.70;;;9.30;99.90;;;;;;5087672;28;20036;-94
2021/12/01 03:26:38;;;;;;;7.57;5.40;;;9.30;99.90;;;;;;5085934;28;20024;-94
2021/12/01 03:29:06;;;;;;;8.02;5.63;;;9.20;99.90;;;;;;5086437;28;20028;-94
2021/12/01 03:31:32;;;;;;;8.65;5.40;;;9.20;99.90;;;;;;5064774;28;20124;-94
2021/12/01 03:33:59;;;;;;;6.20;5.05;;;9.20;99.90;;;;;;5083014;28;20520;-93
2021/12/01 03:36:26;;;;;;;7.45;5.60;;;9.20;99.90;;;;;;5086397;28;20105;-94
2021/12/01 03:38:51;;;;;;;7.45;5.40;;;9.20;99.90;;;;;;5086213;28;20024;-94
2021/12/01 03:41:24;;;;;;;7.05;5.82;;;9.20;99.90;;;;;;5083672;28;20036;-93
2021/12/01 03:43:50;;;;;;;6.75;5.15;;;9.20;99.90;;;;;;5081012;28;20063;-93
2021/12/01 03:46:16;;;;;;;7.07;5.75;;;9.10;99.90;;;;;;5083477;28;20062;-93
2021/12/01 03:48:42;;;;;;;7.70;5.32;;;9.10;99.90;;;;;;5082402;28;20027;-92
2021/12/01 03:51:09;;;;;;;6.68;5.28;;;9.10;99.90;;;;;;5081997;28;20136;-93
2021/12/01 03:53:35;;;;;;;7.53;6.03;;;9.10;99.90;;;;;;5081660;28;20028;-93
2021/12/01 03:56:00;;;;;;;7.75;6.13;;;9.10;99.90;;;;;;5082406;28;20105;-91
2021/12/01 03:58:26;;;;;;;6.82;5.78;;;9.10;99.90;;;;;;5066419;28;20043;-92
2021/12/01 04:00:52;;;;;;;7.35;6.03;;;9.10;99.90;;;;;;5083244;28;20103;-92
2021/12/01 04:03:17;;;;;;;7.03;5.55;;;9.10;99.90;;;;;;5097274;28;20265;-92
2021/12/01 04:05:43;;;;;;;7.00;5.57;;;9.00;99.90;;;;;;5092853;28;20051;-93
2021/12/01 04:08:09;;;;;;;7.75;6.00;;;9.00;99.90;;;;;;5085677;28;20031;-92
2021/12/01 04:10:35;;;;;;;7.70;5.70;;;9.00;99.90;;;;;;5085331;28;20383;-93
2021/12/01 04:13:00;;;;;;;7.93;5.93;;;9.00;99.90;;;;;;5092903;28;20040;-93
2021/12/01 04:15:26;;;;;;;7.28;5.82;;;9.00;99.90;;;;;;5095628;28;20027;-94
2021/12/01 04:17:52;;;;;;;8.43;5.95;;;9.00;99.90;;;;;;5088519;28;20111;-93
2021/12/01 04:20:18;;;;;;;8.65;6.47;;;8.90;99.90;;;;;;5080623;28;20032;-93
2021/12/01 04:22:45;;;;;;;8.07;6.07;;;8.90;99.90;;;;;;5086127;28;20033;-91
2021/12/01 04:25:12;;;;;;;6.70;5.97;;;8.90;99.90;;;;;;5082704;28;20024;-93
2021/12/01 04:27:39;;;;;;;8.13;6.20;;;8.90;99.90;;;;;;5082741;28;20032;-94
2021/12/01 04:30:08;;;;;;;7.90;5.60;;;8.90;99.90;;;;;;5082416;28;20039;-93
2021/12/01 04:32:34;;;;;;;6.78;5.57;;;8.80;99.90;;;;;;5082227;28;20043;-92
2021/12/01 04:35:00;;;;;;;6.45;5.53;;;8.90;99.90;;;;;;5066473;28;20017;-92
2021/12/01 04:37:29;;;;;;;7.15;5.78;;;8.80;99.90;;;;;;5061580;28;20079;-93
2021/12/01 04:39:55;;;;;;;7.75;5.80;;;8.80;99.90;;;;;;5060665;28;20067;-94
2021/12/01 04:42:21;;;;;;;7.18;5.85;;;8.80;99.90;;;;;;5076116;28;20033;-91
2021/12/01 04:44:49;;;;;;;8.75;6.35;;;8.80;99.90;;;;;;5079425;28;20032;-91
2021/12/01 04:47:18;;;;;;;7.85;6.10;;;8.80;99.90;;;;;;5079719;28;20077;-91
2021/12/01 04:49:44;;;;;;;7.93;6.20;;;8.80;99.90;;;;;;5081346;28;20036;-94
2021/12/01 04:52:15;;;;;;;11.20;6.75;;;8.80;99.90;;;;;;5085994;28;20072;-92
2021/12/01 04:54:47;;;;;;;9.13;6.82;;;8.70;99.90;;;;;;5085234;28;20043;-94
2021/12/01 04:57:16;;;;;;;7.70;6.70;;;8.80;99.90;;;;;;5066651;22;20041;-94
2021/12/01 04:59:48;;;;;;;8.15;6.75;;;8.70;99.90;;;;;;5024192;28;20045;-96
2021/12/01 05:03:06;;;;;;;8.45;6.85;;;8.80;99.90;;;;;;5058972;28;20025;-94
2021/12/01 05:05:37;;;;;;;8.30;6.63;;;8.80;99.90;;;;;;5004638;28;20045;-95
2021/12/01 05:08:07;;;;;;;8.45;7.22;;;8.70;99.90;;;;;;5047800;28;20064;-92
2021/12/01 05:10:34;;;;;;;9.55;7.15;;;8.70;99.90;;;;;;5038691;28;20037;-94
2021/12/01 05:13:05;;;;;;;9.25;7.85;;;8.70;99.90;;;;;;5054817;28;20477;-94
2021/12/01 05:15:33;;;;;;;10.20;8.00;;;8.60;99.90;;;;;;5036272;28;20088;-94
2021/12/01 05:17:59;;;;;;;9.98;8.02;;;8.60;99.90;;;;;;5055046;28;20033;-93
2021/12/01 05:20:29;;;;;;;10.60;8.13;;;8.60;99.90;;;;;;5055722;28;20037;-95
2021/12/01 05:23:24;;;;;;;9.57;8.07;;;8.60;99.90;;;;;;5054974;28;20018;-96
2021/12/01 05:25:59;;;;;;;9.40;7.35;;;8.60;99.90;;;;;;5053101;28;20071;-94
2021/12/01 05:28:44;;;;;;;8.90;7.53;;;8.60;99.90;;;;;;5042874;28;20037;-95
2021/12/01 05:31:10;;;;;;;9.77;6.68;;;8.50;99.90;;;;;;5046946;23;20061;-94
2021/12/01 05:33:40;;;;;;;8.68;7.25;;;8.60;99.90;;;;;;5041347;28;20016;-93
2021/12/01 05:36:08;;;;;;;8.50;7.03;;;8.50;99.90;;;;;;5061798;28;20052;-90
2021/12/01 05:38:45;;;;;;;8.95;6.35;;;8.50;99.90;;;;;;5044377;28;20032;-93
2021/12/01 05:41:29;;;;;;;9.10;6.50;;;8.50;99.90;;;;;;5046017;28;20068;-91
2021/12/01 05:43:58;;;;;;;7.05;5.43;;;8.50;99.90;;;;;;5029417;28;20036;-94
2021/12/01 05:46:26;;;;;;;8.55;5.80;;;8.50;99.90;;;;;;5043067;28;20064;-94
2021/12/01 05:48:51;;;;;;;8.23;5.70;;;8.50;99.90;;;;;;5040096;28;20029;-92
2021/12/01 05:51:21;;;;;;;7.55;5.82;;;8.40;99.90;;;;;;5041555;28;20036;-93
2021/12/01 05:53:48;;;;;;;6.78;5.40;;;8.50;99.90;;;;;;5040881;28;20090;-94
2021/12/01 05:56:20;;;;;;;6.30;4.85;;;8.50;99.90;;;;;;5038322;28;20033;-90
2021/12/01 05:58:50;;;;;;;6.63;5.20;;;8.50;99.90;;;;;;5063172;28;20029;-91
2021/12/01 06:01:25;;;;;;;6.22;4.53;;;8.40;99.90;;;;;;5026870;28;20040;-91
2021/12/01 06:03:52;;;;;;;5.80;4.80;;;8.40;99.90;;;;;;5045748;23;20394;-92
2021/12/01 06:06:18;;;;;;;7.10;4.88;;;8.40;99.90;;;;;;5041399;28;20029;-93
2021/12/01 06:08:44;;;;;;;5.50;4.25;;;8.40;99.90;;;;;;5038872;28;20398;-92
2021/12/01 06:11:09;;;;;;;5.32;4.38;;;8.40;99.90;;;;;;5019410;28;20091;-91
2021/12/01 06:13:40;;;;;;;6.38;4.28;;;8.40;99.90;;;;;;5046303;23;20060;-92
2021/12/01 06:16:08;;;;;;;6.85;4.22;;;8.40;99.90;;;;;;5055349;28;20041;-90
2021/12/01 06:18:34;;;;;;;5.80;4.03;;;8.40;99.90;;;;;;5045634;28;20041;-93
2021/12/01 06:21:00;;;;;;;6.75;4.13;;;8.40;99.90;;;;;;5042121;28;20448;-92
2021/12/01 06:23:27;;;;;;;5.50;3.42;;;8.40;99.90;;;;;;5058148;28;20040;-92
2021/12/01 06:25:55;;;;;;;5.43;3.58;;;8.40;99.90;;;;;;5061070;28;20280;-90
2021/12/01 06:28:22;;;;;;;4.60;3.42;;;8.40;99.90;;;;;;5064390;28;20027;-90
2021/12/01 06:30:47;;;;;;;5.95;3.75;;;8.40;99.90;;;;;;5063120;28;20033;-91
2021/12/01 06:33:13;;;;;;;4.22;3.28;;;8.30;99.90;;;;;;5059851;28;20043;-91
2021/12/01 06:35:44;;;;;;;4.10;3.00;;;8.30;99.90;;;;;;5060605;28;20064;-90
2021/12/01 06:38:10;;;;;;;5.38;3.38;;;8.40;99.90;;;;;;5062970;28;20099;-92
2021/12/01 06:40:36;;;;;;;5.05;3.33;;;8.30;99.90;;;;;;5061466;28;20032;-90
2021/12/01 06:43:05;;;;;;;3.22;2.50;;;8.30;99.90;;;;;;5060490;28;20063;-90
2021/12/01 06:45:30;;;;;;;4.28;2.75;;;8.30;99.90;;;;;;5063630;28;20045;-89
2021/12/01 06:47:59;;;;;;;4.60;2.88;;;8.30;99.90;;;;;;5062378;28;20366;-88
2021/12/01 06:50:25;;;;;;;4.15;3.00;;;8.30;99.90;;;;;;5063720;28;20111;-91
2021/12/01 06:52:51;;;;;;;4.22;3.10;;;8.30;99.90;;;;;;5045341;28;20126;-91
2021/12/01 06:55:21;;;;;;;3.67;3.00;;;8.30;99.90;;;;;;5066366;28;20032;-90
2021/12/01 06:57:51;;;;;;;4.10;3.15;;;8.30;99.90;;;;;;5069881;28;20016;-92
2021/12/01 07:00:19;;;;;;;3.90;3.08;;;8.30;99.90;;;;;;5072946;28;20135;-86
2021/12/01 07:02:45;;;;;;;5.88;3.33;;;8.30;99.90;;;;;;5076236;28;20037;-94
2021/12/01 07:05:11;;;;;;;3.85;2.88;;;8.40;99.90;;;;;;5075662;28;20040;-92
2021/12/01 07:07:38;;;;;;;5.32;3.42;;;8.30;99.90;;;;;;5080327;28;20017;-93
2021/12/01 07:10:09;;;;;;;4.03;3.28;;;8.40;99.90;;;;;;5081207;28;20039;-91
2021/12/01 07:12:35;;;;;;;3.58;2.83;;;8.40;99.90;;;;;;5080805;28;20056;-92
2021/12/01 07:15:01;;;;;;;4.22;3.65;;;8.30;99.90;;;;;;5083004;28;20051;-90
2021/12/01 07:17:26;;;;;;;4.57;2.92;;;8.40;99.90;;;;;;5083890;28;20083;-90
2021/12/01 07:19:52;;;;;;;4.95;3.65;;;8.40;99.90;;;;;;5083764;28;20039;-90
2021/12/01 07:22:20;;;;;;;4.95;3.47;;;8.40;99.90;;;;;;5082432;28;20037;-91
2021/12/01 07:24:45;;;;;;;4.45;3.65;;;8.40;99.90;;;;;;5082855;28;20017;-91
2021/12/01 07:27:11;;;;;;;5.85;4.03;;;8.40;99.90;;;;;;5083340;28;20016;-93
2021/12/01 07:29:37;;;;;;;5.28;4.25;;;8.40;99.90;;;;;;5083707;28;20047;-92
2021/12/01 07:32:04;;;;;;;5.82;4.20;;;8.50;99.90;;;;;;5082543;28;20009;-92
2021/12/01 07:34:30;;;;;;;5.90;4.15;;;8.50;99.90;;;;;;5080143;28;20058;-90
2021/12/01 07:36:56;;;;;;;5.35;4.10;;;8.40;99.90;;;;;;5082201;28;20118;-90
2021/12/01 07:39:22;;;;;;;5.78;4.57;;;8.50;99.90;;;;;;5080340;28;20045;-88
2021/12/01 07:41:48;;;;;;;5.55;4.35;;;8.50;99.90;;;;;;5080136;28;20040;-91
2021/12/01 07:44:14;;;;;;;6.00;4.63;;;8.50;99.90;;;;;;5079761;28;20028;-92
2021/12/01 07:46:40;;;;;;;5.78;4.30;;;8.50;99.90;;;;;;5077362;28;20037;-89
2021/12/01 07:49:06;;;;;;;6.00;4.60;;;8.50;99.90;;;;;;5073292;28;20033;-92
2021/12/01 07:51:32;;;;;;;5.93;4.20;;;8.50;99.90;;;;;;5069244;28;20036;-90
2021/12/01 07:53:58;;;;;;;7.32;5.28;;;8.50;99.90;;;;;;5069600;28;20041;-89
2021/12/01 07:56:24;;;;;;;6.63;5.18;;;8.50;99.90;;;;;;5065868;28;20059;-90
2021/12/01 07:58:49;;;;;;;9.15;5.72;;;8.60;99.90;;;;;;5067920;28;20021;-90
2021/12/01 08:01:15;;;;;;;8.15;6.35;;;8.60;99.90;;;;;;5065149;28;20054;-91
2021/12/01 08:03:41;;;;;;;7.93;6.18;;;8.60;99.90;;;;;;5065140;28;20367;-92
2021/12/01 08:06:08;;;;;;;8.93;7.13;;;8.60;99.90;;;;;;5065736;28;20025;-90
2021/12/01 08:08:33;;;;;;;10.48;8.10;;;8.70;99.90;;;;;;5064239;28;20025;-91
2021/12/01 08:10:59;;;;;;;11.15;8.43;;;8.70;99.90;;;;;;5067878;28;20070;-91
2021/12/01 08:13:25;;;;;;;12.57;8.77;;;8.70;99.90;;;;;;5067452;28;20067;-91
2021/12/01 08:15:51;;;;;;;9.85;8.23;;;8.70;99.90;;;;;;5071209;28;20026;-91
2021/12/01 08:18:20;;;;;;;12.07;9.57;;;8.70;99.90;;;;;;5072561;28;20056;-92
2021/12/01 08:20:46;;;;;;;14.65;9.98;;;8.70;99.90;;;;;;5066798;28;20048;-90
2021/12/01 08:23:13;;;;;;;11.50;8.88;;;8.80;99.90;;;;;;5068281;28;20062;-91
2021/12/01 08:25:38;;;;;;;12.20;10.10;;;8.80;99.90;;;;;;5072544;28;20029;-91
2021/12/01 08:28:04;;;;;;;12.25;9.73;;;8.80;99.90;;;;;;5071450;28;20170;-93
2021/12/01 08:30:32;;;;;;;13.90;10.65;;;8.90;99.90;;;;;;5073988;28;20033;-91
2021/12/01 08:32:57;;;;;;;13.77;10.35;;;8.90;99.90;;;;;;5054973;28;20040;-91
2021/12/01 08:35:24;;;;;;;13.50;11.23;;;8.90;99.90;;;;;;5067463;28;20069;-91
2021/12/01 08:37:51;;;;;;;13.30;10.57;;;8.90;99.90;;;;;;5075376;28;20028;-91
2021/12/01 08:40:18;;;;;;;16.88;11.68;;;9.00;99.90;;;;;;5071602;28;20437;-93
2021/12/01 08:42:45;;;;;;;13.15;10.13;;;9.00;99.90;;;;;;5068831;28;20067;-91
2021/12/01 08:45:11;;;;;;;15.55;11.57;;;9.00;99.90;;;;;;5054518;28;20060;-88
2021/12/01 08:47:36;;;;;;;13.65;11.50;;;9.00;99.90;;;;;;5069500;28;20048;-88
2021/12/01 08:50:05;;;;;;;13.25;11.52;;;9.10;99.90;;;;;;5069276;28;20438;-90
2021/12/01 08:52:31;;;;;;;13.70;11.38;;;9.10;99.90;;;;;;5051154;28;20025;-91
2021/12/01 08:54:57;;;;;;;14.88;11.52;;;9.10;99.90;;;;;;5066661;28;20020;-91
2021/12/01 08:57:23;;;;;;;14.93;12.43;;;9.10;99.90;;;;;;5084319;28;20036;-88
2021/12/01 08:59:50;;;;;;;14.38;11.90;;;9.10;99.90;;;;;;5064677;28;20060;-89
2021/12/01 09:02:16;;;;;;;14.45;12.25;;;9.10;99.90;;;;;;5069120;28;20088;-88
2021/12/01 09:04:42;;;;;;;15.40;12.15;;;9.10;99.90;;;;;;5051961;28;20064;-91
2021/12/01 09:07:08;;;;;;;14.55;10.95;;;9.10;99.90;;;;;;5065255;28;20033;-88
2021/12/01 09:09:34;;;;;;;13.63;11.35;;;9.10;99.90;;;;;;5063523;28;20033;-90
2021/12/01 09:12:00;;;;;;;14.15;11.32;;;9.10;99.90;;;;;;5061138;28;20029;-92
2021/12/01 09:14:26;;;;;;;13.02;9.45;;;9.00;99.90;;;;;;5061296;28;20568;-91
2021/12/01 09:16:55;;;;;;;11.63;9.55;;;9.10;99.90;;;;;;5061470;28;20046;-90
2021/12/01 09:19:21;;;;;;;7.97;6.15;;;9.10;99.90;;;;;;5034804;28;21496;-86
2021/12/01 09:21:47;;;;;;;8.57;6.25;;;9.00;99.90;;;;;;5025184;28;20129;-88
2021/12/01 09:24:14;;;;;;;9.00;5.68;;;8.90;99.90;;;;;;5023172;28;20026;-89
2021/12/01 09:26:41;;;;;;;8.75;5.43;;;8.80;99.90;;;;;;5019522;28;20064;-89
2021/12/01 09:29:07;;;;;;;12.07;4.07;;;8.80;99.90;;;;;;5042595;28;20092;-91
2021/12/01 09:31:35;;;;;;;13.43;3.67;;;8.80;99.90;;;;;;5035275;28;20049;-94
2021/12/01 09:34:01;;;;;;;7.55;3.45;;;8.70;99.90;;;;;;5041375;28;20041;-90
2021/12/01 09:36:26;;;;;;;7.72;3.72;;;8.70;99.90;;;;;;5041100;28;20044;-92
2021/12/01 09:38:52;;;;;;;10.57;3.75;;;8.70;99.90;;;;;;5041269;28;20033;-91
2021/12/01 09:41:18;;;;;;;10.77;3.05;;;8.60;99.90;;;;;;5040624;28;20120;-91
2021/12/01 09:43:44;;;;;;;8.85;3.28;;;8.60;99.90;;;;;;5040753;28;20072;-88
2021/12/01 09:46:10;;;;;;;13.13;3.50;;;8.60;99.90;;;;;;5044491;28;20041;-92
2021/12/01 09:48:39;;;;;;;14.80;3.45;;;8.60;99.90;;;;;;5024978;28;20029;-91
2021/12/01 09:51:07;;;;;;;15.52;3.72;;;8.60;99.90;;;;;;5035216;28;20037;-92
2021/12/01 09:53:34;;;;;;;9.55;3.25;;;8.60;99.90;;;;;;5001683;28;20037;-90
2021/12/01 09:56:00;;;;;;;8.40;2.88;;;8.70;99.90;;;;;;5033163;28;20025;-92
2021/12/01 09:58:31;;;;;;;11.35;3.42;;;8.70;99.90;;;;;;5041711;28;20033;-91
2021/12/01 10:01:04;;;;;;;9.80;2.92;;;8.80;99.90;;;;;;5028736;28;20587;-91
2021/12/01 10:03:30;;;;;;;11.55;3.35;;;8.70;99.90;;;;;;5037034;28;20025;-93
2021/12/01 10:06:13;;;;;;;10.75;2.78;;;8.70;99.90;;;;;;5041290;28;20037;-92
2021/12/01 10:08:44;;;;;;;16.33;3.08;;;8.80;99.90;;;;;;5041791;28;20167;-90
2021/12/01 10:11:11;;;;;;;13.68;3.20;;;9.00;99.90;;;;;;5030268;28;20056;-92
2021/12/01 10:13:41;;;;;;;10.82;3.08;;;9.70;99.90;;;;;;5043112;28;20033;-93
2021/12/01 10:16:10;;;;;;;12.13;2.55;;;10.70;99.90;;;;;;5042861;28;20041;-91
2021/12/01 10:18:47;;;;;;;10.82;2.10;;;11.10;99.90;;;;;;5058582;28;20029;-91
2021/12/01 10:21:22;;;;;;;11.38;2.00;;;10.70;99.90;;;;;;5056127;28;20064;-90
2021/12/01 10:23:49;;;;;;;9.43;1.85;;;10.30;99.90;;;;;;5059673;28;20029;-91
2021/12/01 10:26:17;;;;;;;10.68;2.05;;;9.80;99.90;;;;;;5061015;28;20036;-89
2021/12/01 10:28:48;;;;;;;7.03;1.55;;;9.40;99.90;;;;;;5062760;28;20036;-92
2021/12/01 10:31:44;;;;;;;6.95;1.80;;;9.20;99.90;;;;;;5095618;22;20128;-91
2021/12/01 10:34:26;;;;;;;8.85;1.75;;;9.20;99.90;;;;;;5039031;28;20486;-91
2021/12/01 10:37:22;;;;;;;13.15;1.70;;;9.00;99.90;;;;;;5050243;28;20041;-93
2021/12/01 10:40:15;;;;;;;6.20;1.27;;;9.00;99.90;;;;;;5072574;28;20049;-91
2021/12/01 10:42:58;;;;;;;6.18;1.25;;;8.90;99.90;;;;;;5044727;28;20395;-89
2021/12/01 10:45:34;;;;;;;5.10;1.05;;;8.90;99.90;;;;;;5050520;28;20098;-89
2021/12/01 10:48:18;;;;;;;8.15;1.30;;;8.90;99.90;;;;;;5072846;22;20127;-92
2021/12/01 10:50:49;;;;;;;4.95;0.88;;;8.80;99.90;;;;;;5030031;28;20120;-92
2021/12/01 10:53:18;;;;;;;5.70;0.90;;;8.70;99.90;;;;;;5014545;28;20032;-88
2021/12/01 10:55:55;;;;;;;6.93;1.10;;;8.60;99.90;;;;;;4993911;28;20154;-92
2021/12/01 10:58:38;;;;;;;7.68;1.25;;;8.60;99.90;;;;;;5024334;28;20029;-92
2021/12/01 11:01:17;;;;;;;7.43;1.45;;;8.70;99.90;;;;;;5026792;28;20526;-88
2021/12/01 11:03:56;;;;;;;5.10;1.13;;;8.90;99.90;;;;;;5031154;28;20055;-90
2021/12/01 11:06:23;;;;;;;5.88;1.23;;;9.30;99.90;;;;;;5028164;28;20071;-90
2021/12/01 11:08:56;;;;;;;5.38;1.02;;;9.30;99.90;;;;;;5037260;23;20054;-93
2021/12/01 11:11:45;;;;;;;7.78;1.50;;;9.20;99.90;;;;;;5081903;28;20041;-90
2021/12/01 11:14:19;;;;;;;5.93;1.80;;;9.40;99.90;;;;;;5084900;28;20041;-91
2021/12/01 11:16:48;;;;;;;6.13;1.38;;;9.80;99.90;;;;;;5081355;28;20033;-88
2021/12/01 11:19:14;;;;;;;7.57;1.88;;;9.80;99.90;;;;;;5047276;28;20115;-92
2021/12/01 11:21:40;;;;;;;9.50;1.58;;;9.80;99.90;;;;;;5079763;28;20035;-92
2021/12/01 11:24:11;;;;;;;5.85;1.00;;;9.90;99.90;;;;;;5062514;28;20033;-91
2021/12/01 11:26:42;;;;;;;10.13;2.17;;;9.80;99.90;;;;;;5062260;28;20439;-91
2021/12/01 11:29:09;;;;;;;6.63;1.45;;;9.60;99.90;;;;;;5060840;28;20028;-90
2021/12/01 11:31:42;;;;;;;7.28;1.40;;;9.50;99.90;;;;;;5080287;28;20043;-91
2021/12/01 11:34:16;;;;;;;5.88;1.48;;;9.50;99.90;;;;;;5060452;28;20059;-90
2021/12/01 11:36:51;;;;;;;6.10;1.60;;;9.40;99.90;;;;;;5064607;28;20033;-89
2021/12/01 11:39:25;;;;;;;6.38;1.08;;;9.40;99.90;;;;;;5074576;28;20036;-92
2021/12/01 11:41:53;;;;;;;10.05;1.65;;;9.30;99.90;;;;;;5065422;28;20036;-90
2021/12/01 11:44:57;;;;;;;9.25;1.95;;;9.30;99.90;;;;;;5069237;28;20032;-88
2021/12/01 11:47:26;;;;;;;7.18;1.20;;;9.30;99.90;;;;;;5064759;28;20020;-90
2021/12/01 11:50:08;;;;;;;7.22;1.10;;;9.30;99.90;;;;;;5065588;28;20029;-88
2021/12/01 11:52:50;;;;;;;6.65;1.13;;;9.10;99.90;;;;;;5115517;23;20045;-91
2021/12/01 11:55:38;;;;;;;5.25;1.23;;;9.10;99.90;;;;;;5055029;28;20025;-91
2021/12/01 11:58:07;;;;;;;6.70;1.83;;;9.00;99.90;;;;;;5041841;28;20045;-89
2021/12/01 12:00:48;;;;;;;6.68;1.30;;;9.00;99.90;;;;;;5063902;28;20171;-89
2021/12/01 12:03:25;;;;;;;9.13;1.52;;;8.90;99.90;;;;;;5008227;28;20042;-89
2021/12/01 12:06:22;;;;;;;14.38;1.92;;;8.90;99.90;;;;;;5024127;28;20109;-92
2021/12/01 12:08:54;;;;;;;11.27;1.90;;;8.80;99.90;;;;;;5036500;28;20035;-90
2021/12/01 12:11:42;;;;;;;8.82;1.48;;;8.80;99.90;;;;;;5025602;28;20040;-91
2021/12/01 12:14:13;;;;;;;8.60;1.60;;;8.80;99.90;;;;;;5028343;28;20036;-91
2021/12/01 12:16:40;;;;;;;14.90;2.13;;;8.80;99.90;;;;;;5039684;28;20037;-91
2021/12/01 12:19:07;;;;;;;8.68;1.90;;;8.90;99.90;;;;;;5038305;28;20025;-91
2021/12/01 12:21:50;;;;;;;13.95;2.17;;;8.90;99.90;;;;;;5039379;28;20090;-90
2021/12/01 12:24:21;;;;;;;13.23;2.00;;;9.00;99.90;;;;;;5041347;28;20041;-87
2021/12/01 12:26:51;;;;;;;10.38;2.15;;;9.10;99.90;;;;;;5059497;28;20164;-92
2021/12/01 12:29:24;;;;;;;8.40;2.08;;;9.00;99.90;;;;;;5040259;28;20041;-90
2021/12/01 12:32:17;;;;;;;12.25;2.15;;;9.10;99.90;;;;;;5037008;28;20061;-89
2021/12/01 12:34:54;;;;;;;8.40;1.63;;;9.10;99.90;;;;;;5049582;28;20433;-87
2021/12/01 12:37:24;;;;;;;7.38;1.88;;;9.20;99.90;;;;;;5043712;28;20083;-89
2021/12/01 12:39:55;;;;;;;9.13;1.65;;;9.20;99.90;;;;;;5062660;28;20076;-91
2021/12/01 12:42:25;;;;;;;7.55;1.30;;;9.30;99.90;;;;;;5053887;22;20067;-91
2021/12/01 12:45:24;;;;;;;8.30;1.45;;;9.40;99.90;;;;;;5066737;28;20103;-93
2021/12/01 12:48:46;;;;;;;9.07;1.98;;;9.40;99.90;;;;;;5102984;22;20109;-89
2021/12/01 12:51:38;;;;;;;9.50;2.00;;;9.40;99.90;;;;;;5027809;28;20495;-89
2021/12/01 12:54:56;;;;;;;11.52;1.90;;;9.40;99.90;;;;;;5198043;22;20065;-90
2021/12/01 12:57:24;;;;;;;12.30;1.65;;;9.40;99.90;;;;;;5020429;28;20040;-91
2021/12/01 13:00:33;;;;;;;9.20;1.15;;;9.40;99.90;;;;;;5025730;28;20038;-91
2021/12/01 13:03:27;;;;;;;7.32;1.65;;;9.30;99.90;;;;;;5042266;28;20052;-88
2021/12/01 13:06:01;;;;;;;;;;;9.30;99.90;;;;;;5011863;28;20048;-90
2021/12/01 13:08:42;;;;;;;7.82;1.92;;;9.30;99.90;;;;;;5040489;28;19909;-90
2021/12/01 13:11:09;;;;;;;7.95;1.30;;;9.40;99.90;;;;;;5020132;28;20053;-90
2021/12/01 13:13:38;;;;;;;8.40;1.35;;;9.50;99.90;;;;;;5021241;28;20037;-92